createdAt,value
2023-05-16T00:00:11.329Z,19.92
2023-05-16T00:02:40.693Z,18.38
2023-05-16T00:05:11.501Z,16.15
2023-05-16T00:07:40.468Z,20.70
2023-05-16T00:10:10.308Z,15.43
2023-05-16T00:12:40.539Z,18.60
2023-05-16T00:15:16.227Z,16.33
2023-05-16T00:20:18.046Z,16.42
2023-05-16T00:22:47.106Z,21.80
2023-05-16T00:25:16.097Z,16.73
2023-05-16T00:27:45.135Z,15.35
2023-05-16T00:30:16.230Z,15.55
2023-05-16T00:32:45.496Z,17.80
2023-05-16T00:35:14.527Z,20.35
2023-05-16T00:37:43.582Z,19.25
2023-05-16T00:40:13.436Z,17.25
2023-05-16T00:42:42.421Z,17.23
2023-05-16T00:45:12.411Z,12.75
2023-05-16T00:47:43.106Z,15.57
2023-05-16T00:50:12.743Z,19.08
2023-05-16T00:52:41.989Z,16.73
2023-05-16T00:55:11.779Z,14.68
2023-05-16T00:57:41.483Z,17.15
2023-05-16T01:00:11.546Z,16.30
2023-05-16T01:02:42.463Z,14.40
2023-05-16T01:05:12.496Z,14.98
2023-05-16T01:07:41.474Z,14.85
2023-05-16T01:10:11.441Z,15.18
2023-05-16T01:12:50.144Z,15.90
2023-05-16T01:15:27.429Z,15.68
2023-05-16T01:18:04.671Z,14.52
2023-05-16T01:20:42.701Z,14.25
2023-05-16T01:23:42.213Z,16.08
2023-05-16T01:26:31.317Z,14.77
2023-05-16T01:29:01.026Z,17.77
2023-05-16T01:31:30.062Z,14.57
2023-05-16T01:33:59.076Z,17.23
2023-05-16T01:36:37.271Z,14.38
2023-05-16T01:39:12.839Z,13.85
2023-05-16T01:41:53.287Z,15.82
2023-05-16T01:44:30.358Z,16.58
2023-05-16T01:47:03.802Z,16.17
2023-05-16T01:49:37.697Z,17.33
2023-05-16T01:52:12.551Z,15.27
2023-05-16T01:54:45.709Z,16.57
2023-05-16T01:57:18.674Z,13.30
2023-05-16T01:59:48.152Z,14.38
2023-05-16T02:02:20.156Z,15.18
2023-05-16T02:04:49.211Z,17.42
2023-05-16T02:07:18.336Z,13.90
2023-05-16T02:09:47.369Z,14.20
2023-05-16T02:12:18.968Z,17.27
2023-05-16T02:14:47.987Z,15.07
2023-05-16T02:17:17.070Z,15.02
2023-05-16T02:19:46.192Z,15.65
2023-05-16T02:22:15.210Z,12.00
2023-05-16T02:24:44.194Z,14.00
2023-05-16T02:27:13.499Z,14.55
2023-05-16T02:29:44.121Z,13.00
2023-05-16T02:32:13.197Z,14.38
2023-05-16T02:34:42.445Z,15.00
2023-05-16T02:37:13.187Z,13.38
2023-05-16T02:39:42.575Z,14.63
2023-05-16T02:42:11.772Z,12.93
2023-05-16T02:44:42.480Z,14.45
2023-05-16T02:47:11.707Z,13.70
2023-05-16T02:49:40.663Z,14.43
2023-05-16T02:52:09.782Z,14.18
2023-05-16T02:54:38.848Z,15.10
2023-05-16T02:57:07.925Z,15.95
2023-05-16T02:59:37.223Z,14.98
2023-05-16T03:02:08.251Z,15.13
2023-05-16T03:04:37.848Z,14.25
2023-05-16T03:07:06.865Z,16.35
2023-05-16T03:09:35.912Z,14.05
2023-05-16T03:12:06.942Z,14.18
2023-05-16T03:14:36.632Z,15.07
2023-05-16T03:17:07.365Z,14.95
2023-05-16T03:19:36.369Z,13.68
2023-05-16T03:22:05.648Z,16.27
2023-05-16T03:24:34.747Z,15.60
2023-05-16T03:27:05.433Z,14.85
2023-05-16T03:29:34.659Z,16.63
2023-05-16T03:32:03.780Z,14.82
2023-05-16T03:34:34.716Z,15.23
2023-05-16T03:37:03.706Z,14.82
2023-05-16T03:39:32.731Z,15.40
2023-05-16T03:42:01.863Z,14.50
2023-05-16T03:44:30.905Z,16.85
2023-05-16T03:46:59.910Z,13.80
2023-05-16T03:49:29.603Z,15.13
2023-05-16T03:52:00.339Z,16.27
2023-05-16T03:54:29.329Z,13.98
2023-05-16T03:56:58.316Z,14.95
2023-05-16T03:59:27.290Z,13.73
2023-05-16T04:01:56.475Z,15.63
2023-05-16T04:04:25.518Z,15.05
2023-05-16T04:06:54.533Z,12.65
2023-05-16T04:09:25.187Z,13.60
2023-05-16T04:11:54.244Z,14.35
2023-05-16T04:14:23.277Z,14.68
2023-05-16T04:16:52.674Z,13.60
2023-05-16T04:19:21.853Z,13.85
2023-05-16T04:21:51.579Z,13.77
2023-05-16T04:24:20.630Z,14.40
2023-05-16T04:26:52.094Z,15.43
2023-05-16T04:29:22.228Z,14.75
2023-05-16T04:31:51.286Z,12.73
2023-05-16T04:34:20.364Z,16.00
2023-05-16T04:36:49.572Z,15.43
2023-05-16T04:39:19.117Z,14.00
2023-05-16T04:41:55.919Z,13.68
2023-05-16T04:44:24.964Z,13.23
2023-05-16T04:46:56.998Z,14.40
2023-05-16T04:49:26.147Z,13.48
2023-05-16T04:51:55.212Z,13.30
2023-05-16T04:54:24.371Z,13.25
2023-05-16T04:56:53.399Z,14.65
2023-05-16T04:59:24.237Z,16.75
2023-05-16T05:01:53.313Z,12.18
2023-05-16T05:04:23.540Z,13.52
2023-05-16T05:06:52.715Z,14.73
2023-05-16T05:09:21.840Z,13.55
2023-05-16T05:11:50.903Z,16.02
2023-05-16T05:14:19.934Z,13.10
2023-05-16T05:16:50.558Z,14.38
2023-05-16T05:19:19.795Z,16.55
2023-05-16T05:21:48.888Z,13.25
2023-05-16T05:24:17.872Z,15.82
2023-05-16T05:26:46.861Z,14.88
2023-05-16T05:29:15.798Z,13.55
2023-05-16T05:31:44.825Z,16.30
2023-05-16T05:34:15.662Z,14.23
2023-05-16T05:36:45.409Z,15.50
2023-05-16T05:39:14.445Z,17.58
2023-05-16T05:41:44.113Z,14.23
2023-05-16T05:44:13.417Z,15.23
2023-05-16T05:46:42.636Z,14.43
2023-05-16T05:49:11.742Z,14.18
2023-05-16T05:51:42.571Z,15.98
2023-05-16T05:54:12.194Z,16.60
2023-05-16T05:56:41.219Z,14.73
2023-05-16T05:59:10.342Z,15.80
2023-05-16T06:01:40.109Z,16.92
2023-05-16T06:04:09.111Z,15.68
2023-05-16T06:06:38.529Z,15.63
2023-05-16T06:09:09.201Z,14.90
2023-05-16T06:11:38.498Z,14.02
2023-05-16T06:14:07.494Z,15.27
2023-05-16T06:16:36.656Z,17.52
2023-05-16T06:19:06.282Z,16.20
2023-05-16T06:21:36.176Z,15.98
2023-05-16T06:24:05.369Z,15.05
2023-05-16T06:26:36.840Z,17.15
2023-05-16T06:29:05.780Z,17.05
2023-05-16T06:31:34.781Z,15.98
2023-05-16T06:34:03.803Z,15.50
2023-05-16T06:36:32.814Z,17.80
2023-05-16T06:39:01.780Z,19.80
2023-05-16T06:41:30.879Z,17.15
2023-05-16T06:44:01.544Z,18.27
2023-05-16T06:46:30.661Z,16.27
2023-05-16T06:49:00.000Z,17.55
2023-05-16T06:51:29.193Z,20.10
2023-05-16T06:53:58.382Z,18.08
2023-05-16T06:56:27.794Z,18.98
2023-05-16T06:58:57.241Z,16.75
2023-05-16T07:01:28.013Z,21.02
2023-05-16T07:03:57.245Z,17.15
2023-05-16T07:06:26.403Z,17.85
2023-05-16T07:08:55.448Z,17.48
2023-05-16T07:11:24.475Z,21.10
2023-05-16T07:13:53.513Z,19.00
2023-05-16T07:16:23.160Z,20.67
2023-05-16T07:18:53.916Z,19.90
2023-05-16T07:21:23.001Z,22.73
2023-05-16T07:23:52.021Z,20.33
2023-05-16T07:26:24.176Z,20.52
2023-05-16T07:28:53.327Z,24.35
2023-05-16T07:31:22.695Z,18.95
2023-05-16T07:33:53.493Z,20.02
2023-05-16T07:36:22.603Z,18.48
2023-05-16T07:38:51.814Z,22.05
2023-05-16T07:41:20.883Z,23.30
2023-05-16T07:43:49.980Z,22.75
2023-05-16T07:46:21.162Z,19.27
2023-05-16T07:48:50.368Z,24.45
2023-05-16T07:51:24.181Z,20.85
2023-05-16T07:53:53.515Z,19.33
2023-05-16T07:56:22.775Z,21.48
2023-05-16T07:58:52.406Z,21.10
2023-05-16T08:01:21.608Z,19.50
2023-05-16T08:03:50.695Z,20.30
2023-05-16T08:06:21.440Z,21.77
2023-05-16T08:08:50.510Z,22.52
2023-05-16T08:11:20.348Z,21.15
2023-05-16T08:13:49.450Z,19.98
2023-05-16T08:16:18.792Z,21.50
2023-05-16T08:18:47.921Z,21.48
2023-05-16T08:21:17.741Z,22.67
2023-05-16T08:23:48.386Z,25.10
2023-05-16T08:26:19.591Z,21.67
2023-05-16T08:28:48.754Z,22.00
2023-05-16T08:31:17.917Z,23.20
2023-05-16T08:33:47.192Z,20.90
2023-05-16T08:36:16.943Z,22.17
2023-05-16T08:38:47.632Z,21.08
2023-05-16T08:41:16.753Z,21.50
2023-05-16T08:43:45.911Z,21.27
2023-05-16T08:46:15.160Z,20.95
2023-05-16T08:48:47.535Z,23.60
2023-05-16T08:51:19.946Z,20.55
2023-05-16T08:53:55.751Z,22.85
2023-05-16T08:56:25.900Z,23.52
2023-05-16T08:58:56.151Z,19.30
2023-05-16T09:01:25.394Z,23.15
2023-05-16T09:03:55.013Z,22.10
2023-05-16T09:06:24.198Z,21.10
2023-05-16T09:08:55.631Z,23.20
2023-05-16T09:11:24.896Z,23.45
2023-05-16T09:13:53.958Z,23.30
2023-05-16T09:16:23.432Z,23.35
2023-05-16T09:18:57.832Z,22.92
2023-05-16T09:21:29.793Z,20.45
2023-05-16T09:24:05.623Z,24.38
2023-05-16T09:26:36.014Z,25.60
2023-05-16T09:29:13.315Z,25.65
2023-05-16T09:31:42.931Z,22.00
2023-05-16T09:34:13.646Z,24.88
2023-05-16T09:36:44.023Z,23.63
2023-05-16T09:39:17.455Z,25.10
2023-05-16T09:41:46.915Z,23.27
2023-05-16T09:44:15.946Z,23.92
2023-05-16T09:46:45.146Z,22.38
2023-05-16T09:49:15.495Z,24.38
2023-05-16T09:51:44.816Z,25.00
2023-05-16T09:54:16.552Z,23.05
2023-05-16T09:56:52.574Z,25.42
2023-05-16T09:59:26.987Z,24.58
2023-05-16T10:01:58.687Z,23.58
2023-05-16T10:04:28.267Z,26.40
2023-05-16T10:06:58.419Z,25.85
2023-05-16T10:09:30.054Z,25.63
2023-05-16T10:11:59.498Z,27.10
2023-05-16T10:14:28.592Z,24.30
2023-05-16T10:16:59.100Z,31.58
2023-05-16T10:19:28.946Z,31.10
2023-05-16T10:22:01.820Z,26.48
2023-05-16T10:24:41.172Z,30.98
2023-05-16T10:27:16.445Z,34.53
2023-05-16T10:32:24.766Z,30.92
2023-05-16T10:34:55.918Z,33.42
2023-05-16T10:37:25.876Z,32.85
2023-05-16T10:39:56.810Z,32.10
2023-05-16T10:42:25.857Z,35.00
2023-05-16T10:45:05.629Z,36.63
2023-05-16T10:47:35.776Z,32.97
2023-05-16T10:50:05.185Z,34.95
2023-05-16T10:52:38.120Z,35.55
2023-05-16T10:55:09.424Z,33.22
2023-05-16T10:57:39.217Z,35.15
2023-05-16T11:00:11.192Z,37.50
2023-05-16T11:02:43.426Z,34.25
2023-05-16T11:05:19.195Z,35.50
2023-05-16T11:08:05.962Z,30.48
2023-05-16T11:10:36.645Z,35.42
2023-05-16T11:13:09.954Z,32.58
2023-05-16T11:15:39.079Z,34.60
2023-05-16T11:18:10.056Z,34.60
2023-05-16T11:20:40.384Z,34.55
2023-05-16T11:23:26.441Z,34.00
2023-05-16T11:25:59.459Z,31.77
2023-05-16T11:28:28.998Z,37.35
2023-05-16T11:31:00.654Z,35.42
2023-05-16T11:33:35.493Z,31.10
2023-05-16T11:36:16.011Z,31.52
2023-05-16T11:38:45.787Z,35.17
2023-05-16T11:41:18.538Z,34.38
2023-05-16T11:43:47.661Z,39.30
2023-05-16T11:46:17.797Z,33.55
2023-05-16T11:48:48.163Z,34.63
2023-05-16T11:51:21.152Z,37.08
2023-05-16T11:53:51.066Z,36.38
2023-05-16T11:56:25.643Z,36.55
2023-05-16T11:58:54.911Z,34.63
2023-05-16T12:01:24.145Z,36.50
2023-05-16T12:03:59.738Z,35.33
2023-05-16T12:06:30.233Z,35.15
2023-05-16T12:08:59.253Z,37.00
2023-05-16T12:11:29.957Z,36.80
2023-05-16T12:13:59.173Z,37.25
2023-05-16T12:16:28.370Z,35.65
2023-05-16T12:18:57.638Z,37.55
2023-05-16T12:21:27.450Z,35.92
2023-05-16T12:24:00.674Z,38.25
2023-05-16T12:26:32.961Z,35.08
2023-05-16T12:29:04.344Z,38.63
2023-05-16T12:31:37.823Z,37.13
2023-05-16T12:34:07.204Z,36.17
2023-05-16T12:36:36.504Z,36.58
2023-05-16T12:39:09.400Z,39.47
2023-05-16T12:41:45.480Z,36.40
2023-05-16T12:44:17.918Z,38.42
2023-05-16T12:46:49.214Z,35.38
2023-05-16T12:49:22.312Z,36.72
2023-05-16T12:51:52.484Z,42.30
2023-05-16T12:54:23.788Z,35.67
2023-05-16T12:56:54.577Z,33.80
2023-05-16T12:59:23.640Z,39.58
2023-05-16T13:01:52.894Z,38.85
2023-05-16T13:04:22.297Z,34.97
2023-05-16T13:09:24.239Z,36.33
2023-05-16T13:11:55.142Z,33.25
2023-05-16T13:14:24.294Z,38.80
2023-05-16T13:16:53.461Z,35.35
2023-05-16T13:19:24.093Z,35.03
2023-05-16T13:21:53.481Z,38.45
2023-05-16T13:24:22.541Z,35.47
2023-05-16T13:26:51.653Z,38.42
2023-05-16T13:29:22.322Z,40.92
2023-05-16T13:31:51.697Z,36.40
2023-05-16T13:34:20.756Z,35.40
2023-05-16T13:36:54.494Z,37.05
2023-05-16T13:39:24.642Z,40.28
2023-05-16T13:41:53.662Z,36.75
2023-05-16T13:44:24.464Z,34.35
2023-05-16T13:46:53.638Z,38.05
2023-05-16T13:49:23.115Z,39.10
2023-05-16T13:51:53.134Z,31.08
2023-05-16T13:54:24.925Z,35.65
2023-05-16T13:56:53.949Z,36.90
2023-05-16T13:59:39.570Z,37.65
2023-05-16T14:02:13.753Z,34.83
2023-05-16T14:04:42.815Z,36.20
2023-05-16T14:07:11.964Z,37.03
2023-05-16T14:09:41.396Z,36.28
2023-05-16T14:12:10.850Z,39.17
2023-05-16T14:14:43.594Z,37.58
2023-05-16T14:17:12.742Z,39.95
2023-05-16T14:19:41.836Z,33.30
2023-05-16T14:22:10.837Z,37.60
2023-05-16T14:24:39.867Z,37.38
2023-05-16T14:27:08.931Z,35.90
2023-05-16T14:29:38.008Z,33.78
2023-05-16T14:32:10.031Z,34.03
2023-05-16T14:34:39.127Z,34.28
2023-05-16T14:37:08.252Z,34.20
2023-05-16T14:39:37.637Z,36.17
2023-05-16T14:42:08.691Z,34.55
2023-05-16T14:44:38.010Z,33.15
2023-05-16T14:47:09.037Z,35.97
2023-05-16T14:49:38.063Z,39.08
2023-05-16T14:52:07.737Z,32.13
2023-05-16T14:54:37.704Z,36.95
2023-05-16T14:57:07.853Z,48.60
2023-05-16T14:59:37.334Z,27.88
2023-05-16T15:02:08.378Z,31.27
2023-05-16T15:04:37.637Z,32.40
2023-05-16T15:07:06.957Z,32.88
2023-05-16T15:09:36.132Z,31.55
2023-05-16T15:12:05.902Z,31.15
2023-05-16T15:14:35.140Z,36.55
2023-05-16T15:17:07.316Z,33.47
2023-05-16T15:19:39.524Z,39.45
2023-05-16T15:22:09.682Z,32.60
2023-05-16T15:24:38.891Z,33.88
2023-05-16T15:27:08.323Z,37.25
2023-05-16T15:29:37.564Z,33.53
2023-05-16T15:32:07.472Z,32.53
2023-05-16T15:34:39.352Z,34.22
2023-05-16T15:37:08.451Z,37.00
2023-05-16T15:39:37.576Z,34.72
2023-05-16T15:42:11.190Z,35.58
2023-05-16T15:44:40.821Z,36.60
2023-05-16T15:47:11.117Z,38.67
2023-05-16T15:49:42.378Z,39.55
2023-05-16T15:52:11.619Z,41.45
2023-05-16T15:54:41.811Z,39.70
2023-05-16T15:57:10.847Z,36.10
2023-05-16T15:59:39.945Z,44.15
2023-05-16T16:02:09.044Z,38.08
2023-05-16T16:04:38.058Z,39.05
2023-05-16T16:07:08.884Z,43.25
2023-05-16T16:09:37.928Z,39.03
2023-05-16T16:12:07.521Z,38.75
2023-05-16T16:14:36.681Z,38.40
2023-05-16T16:17:06.352Z,37.30
2023-05-16T16:19:35.878Z,35.88
2023-05-16T16:22:05.694Z,37.00
2023-05-16T16:24:36.635Z,36.20
2023-05-16T16:27:06.091Z,40.90
2023-05-16T16:29:35.111Z,35.28
2023-05-16T16:32:04.114Z,35.03
2023-05-16T16:34:33.232Z,31.88
2023-05-16T16:37:03.006Z,32.08
2023-05-16T16:39:33.216Z,38.65
2023-05-16T16:42:04.709Z,32.22
2023-05-16T16:44:33.754Z,37.90
2023-05-16T16:47:03.177Z,34.78
2023-05-16T16:49:32.518Z,35.03
2023-05-16T16:52:02.139Z,37.75
2023-05-16T16:54:31.196Z,36.05
2023-05-16T16:57:00.295Z,36.08
2023-05-16T16:59:31.007Z,39.97
2023-05-16T17:02:01.083Z,36.47
2023-05-16T17:04:30.386Z,36.00
2023-05-16T17:06:59.407Z,37.78
2023-05-16T17:09:28.580Z,38.90
2023-05-16T17:11:57.614Z,36.85
2023-05-16T17:14:26.687Z,43.65
2023-05-16T17:16:57.606Z,38.70
2023-05-16T17:19:26.684Z,38.40
2023-05-16T17:21:55.779Z,41.10
2023-05-16T17:24:25.241Z,37.90
2023-05-16T17:26:54.645Z,36.28
2023-05-16T17:29:24.804Z,39.72
2023-05-16T17:31:54.294Z,40.92
2023-05-16T17:34:25.271Z,37.80
2023-05-16T17:36:54.304Z,36.83
2023-05-16T17:39:23.446Z,36.72
2023-05-16T17:41:55.136Z,41.13
2023-05-16T17:44:24.232Z,43.08
2023-05-16T17:46:53.289Z,38.33
2023-05-16T17:49:24.359Z,36.63
2023-05-16T17:51:55.113Z,34.83
2023-05-16T17:54:24.993Z,40.25
2023-05-16T17:56:54.550Z,34.97
2023-05-16T17:59:23.558Z,39.17
2023-05-16T18:01:52.813Z,37.13
2023-05-16T18:04:24.668Z,33.90
2023-05-16T18:06:53.769Z,32.83
2023-05-16T18:09:22.887Z,30.02
2023-05-16T18:11:52.368Z,38.42
2023-05-16T18:14:21.712Z,37.05
2023-05-16T18:16:50.801Z,37.78
2023-05-16T18:19:20.017Z,34.70
2023-05-16T18:21:50.837Z,34.58
2023-05-16T18:24:19.882Z,33.45
2023-05-16T18:26:50.382Z,32.25
2023-05-16T18:29:19.479Z,29.63
2023-05-16T18:31:48.522Z,36.05
2023-05-16T18:34:17.980Z,36.13
2023-05-16T18:36:47.052Z,36.85
2023-05-16T18:39:21.282Z,33.08
2023-05-16T18:41:50.454Z,32.85
2023-05-16T18:44:19.772Z,32.60
2023-05-16T18:46:48.913Z,32.17
2023-05-16T18:49:18.177Z,34.92
2023-05-16T18:51:47.346Z,36.92
2023-05-16T18:54:16.547Z,35.50
2023-05-16T18:56:47.353Z,39.22
2023-05-16T18:59:16.419Z,31.75
2023-05-16T19:01:45.944Z,35.25
2023-05-16T19:04:15.027Z,37.50
2023-05-16T19:06:44.171Z,30.20
2023-05-16T19:09:13.368Z,33.15
2023-05-16T19:11:42.540Z,35.03
2023-05-16T19:14:13.361Z,30.88
2023-05-16T19:16:42.471Z,29.02
2023-05-16T19:19:11.613Z,33.45
2023-05-16T19:21:40.935Z,29.30
2023-05-16T19:24:11.310Z,29.27
2023-05-16T19:26:40.871Z,26.42
2023-05-16T19:29:12.002Z,26.08
2023-05-16T19:31:41.320Z,28.13
2023-05-16T19:34:10.430Z,33.42
2023-05-16T19:36:39.548Z,29.83
2023-05-16T19:39:08.655Z,28.02
2023-05-16T19:41:37.919Z,27.35
2023-05-16T19:44:07.166Z,28.13
2023-05-16T19:46:38.433Z,25.30
2023-05-16T19:49:07.772Z,27.15
2023-05-16T19:51:41.977Z,25.02
2023-05-16T19:54:11.592Z,25.23
2023-05-16T19:56:40.648Z,27.42
2023-05-16T19:59:09.793Z,27.70
2023-05-16T20:04:10.625Z,24.63
2023-05-16T20:06:39.937Z,25.27
2023-05-16T20:09:09.265Z,22.02
2023-05-16T20:11:38.693Z,20.52
2023-05-16T20:14:07.897Z,19.33
2023-05-16T20:16:36.929Z,21.80
2023-05-16T20:19:08.107Z,23.75
2023-05-16T20:21:37.172Z,21.92
2023-05-16T20:24:06.881Z,22.90
2023-05-16T20:26:35.908Z,21.40
2023-05-16T20:29:06.021Z,20.92
2023-05-16T20:31:35.101Z,18.17
2023-05-16T20:34:04.426Z,19.25
2023-05-16T20:36:35.486Z,19.92
2023-05-16T20:39:05.143Z,24.67
2023-05-16T20:41:34.265Z,22.33
2023-05-16T20:44:03.317Z,19.13
2023-05-16T20:46:32.532Z,22.65
2023-05-16T20:49:01.675Z,24.27
2023-05-16T20:51:30.892Z,20.08
2023-05-16T20:54:01.634Z,22.83
2023-05-16T20:56:30.766Z,21.05
2023-05-16T20:59:00.550Z,20.75
2023-05-16T21:01:32.156Z,23.00
2023-05-16T21:04:01.465Z,18.63
2023-05-16T21:06:30.557Z,20.13
2023-05-16T21:09:01.180Z,20.10
2023-05-16T21:11:32.949Z,17.50
2023-05-16T21:14:02.213Z,18.48
2023-05-16T21:16:32.018Z,18.23
2023-05-16T21:19:05.303Z,19.92
2023-05-16T21:21:34.548Z,20.08
2023-05-16T21:24:06.304Z,17.63
2023-05-16T21:26:35.300Z,19.40
2023-05-16T21:29:04.583Z,21.05
2023-05-16T21:31:33.719Z,17.10
2023-05-16T21:34:02.891Z,15.02
2023-05-16T21:36:32.149Z,20.25
2023-05-16T21:39:01.486Z,17.60
2023-05-16T21:41:32.152Z,15.27
2023-05-16T21:44:01.216Z,18.17
2023-05-16T21:46:30.322Z,18.23
2023-05-16T21:48:59.408Z,16.50
2023-05-16T21:51:28.580Z,14.10
2023-05-16T21:53:57.607Z,14.70
2023-05-16T21:56:27.018Z,14.45
2023-05-16T21:58:58.793Z,12.02
2023-05-16T22:01:29.508Z,11.95
2023-05-16T22:03:58.893Z,13.27
2023-05-16T22:06:28.146Z,11.68
2023-05-16T22:08:57.619Z,11.88
2023-05-16T22:11:27.157Z,16.90
2023-05-16T22:13:57.848Z,15.65
2023-05-16T22:16:27.036Z,14.18
2023-05-16T22:18:56.412Z,14.00
2023-05-16T22:21:25.537Z,17.48
2023-05-16T22:23:54.638Z,11.80
2023-05-16T22:26:23.865Z,11.73
2023-05-16T22:28:52.882Z,10.30
2023-05-16T22:31:23.601Z,10.27
2023-05-16T22:33:52.740Z,9.65
2023-05-16T22:36:21.803Z,9.60
2023-05-16T22:38:51.292Z,12.50
2023-05-16T22:41:20.332Z,9.30
2023-05-16T22:43:49.400Z,9.85
2023-05-16T22:46:18.638Z,10.32
2023-05-16T22:48:49.355Z,8.00
2023-05-16T22:51:18.465Z,7.30
2023-05-16T22:53:47.497Z,6.68
2023-05-16T22:56:16.476Z,7.38
2023-05-16T22:58:45.575Z,8.98
2023-05-16T23:01:14.632Z,8.05
2023-05-16T23:03:43.914Z,7.53
2023-05-16T23:06:14.724Z,11.70
2023-05-16T23:08:43.837Z,7.80
2023-05-16T23:11:12.975Z,10.18
2023-05-16T23:13:42.001Z,6.28
2023-05-16T23:16:11.034Z,9.90
2023-05-16T23:18:40.325Z,6.75
2023-05-16T23:21:09.506Z,8.13
2023-05-16T23:23:40.229Z,6.22
2023-05-16T23:26:09.336Z,6.15
2023-05-16T23:28:38.433Z,9.27
2023-05-16T23:31:07.511Z,7.78
2023-05-16T23:33:36.703Z,6.32
2023-05-16T23:36:06.650Z,7.68
2023-05-16T23:38:35.682Z,5.40
2023-05-16T23:41:06.424Z,5.80
2023-05-16T23:43:35.448Z,6.18
2023-05-16T23:46:04.568Z,8.98
2023-05-16T23:48:33.910Z,5.90
2023-05-16T23:51:05.430Z,7.57
2023-05-16T23:53:34.834Z,7.10
2023-05-16T23:56:05.740Z,6.20
2023-05-16T23:58:34.747Z,8.18
